South Woodford, United Kingdom
Current Conditions -  °F | °C
As of 12:20 PM on Wednesday 26 Nov 2014 (Local Time) from EGLC Reporting Station
Drizzle Drizzle  
Wind Chill: 48°   Ceiling: 200
Heat Index: 48°   Visibility: 0.56mi
Dew Point: 48°   Wind: 3mph
Humidity: 100%   Direction: 80°E
Pressure: 29.85"   Gusts: NA
Location:  51.59°N, 0.03°E
Report Text: EGLC 261220Z 08003KT 0900 R09/1400 R27/1300 -DZ FG FEW001 BKN002 09/09 Q1011
Loading
Personal Weather Stations






























Interactive Weather Map New forecast layout! Learn more

10-Day Weather Forecast

Advertisements
Track Severe Weather on mobile